sensor_id;sensor_type;location;lat;lon;timestamp;temperature;humidity
2487;DHT22;1254;49.144;8.212;2022-07-06T00:02:23;19.20;99.90
2487;DHT22;1254;49.144;8.212;2022-07-06T00:04:50;19.20;99.90
2487;DHT22;1254;49.144;8.212;2022-07-06T00:07:20;19.20;99.90
2487;DHT22;1254;49.144;8.212;2022-07-06T00:09:49;19.20;99.90
2487;DHT22;1254;49.144;8.212;2022-07-06T00:12:15;19.20;99.90
2487;DHT22;1254;49.144;8.212;2022-07-06T00:14:42;19.20;99.90
2487;DHT22;1254;49.144;8.212;2022-07-06T00:17:08;19.20;99.90
2487;DHT22;1254;49.144;8.212;2022-07-06T00:19:35;19.20;99.90
2487;DHT22;1254;49.144;8.212;2022-07-06T00:22:01;19.20;99.90
2487;DHT22;1254;49.144;8.212;2022-07-06T00:24:28;19.10;99.90
2487;DHT22;1254;49.144;8.212;2022-07-06T00:26:54;19.10;99.90
2487;DHT22;1254;49.144;8.212;2022-07-06T00:29:21;19.10;99.90
2487;DHT22;1254;49.144;8.212;2022-07-06T00:31:47;19.00;99.90
2487;DHT22;1254;49.144;8.212;2022-07-06T00:34:14;19.00;99.90
2487;DHT22;1254;49.144;8.212;2022-07-06T00:36:40;19.00;99.90
2487;DHT22;1254;49.144;8.212;2022-07-06T00:39:06;18.90;99.90
2487;DHT22;1254;49.144;8.212;2022-07-06T00:41:33;18.90;99.90
2487;DHT22;1254;49.144;8.212;2022-07-06T00:43:59;18.80;99.90
2487;DHT22;1254;49.144;8.212;2022-07-06T00:46:33;18.80;99.90
2487;DHT22;1254;49.144;8.212;2022-07-06T00:49:00;18.80;99.90
2487;DHT22;1254;49.144;8.212;2022-07-06T00:51:32;18.80;99.90
2487;DHT22;1254;49.144;8.212;2022-07-06T00:54:04;18.80;99.90
2487;DHT22;1254;49.144;8.212;2022-07-06T00:56:31;18.70;99.90
2487;DHT22;1254;49.144;8.212;2022-07-06T00:59:02;18.70;99.90
2487;DHT22;1254;49.144;8.212;2022-07-06T01:01:29;18.70;99.90
2487;DHT22;1254;49.144;8.212;2022-07-06T01:03:55;18.70;99.90
2487;DHT22;1254;49.144;8.212;2022-07-06T01:06:22;18.70;99.90
2487;DHT22;1254;49.144;8.212;2022-07-06T01:08:49;18.60;99.90
2487;DHT22;1254;49.144;8.212;2022-07-06T01:11:17;18.60;99.90
2487;DHT22;1254;49.144;8.212;2022-07-06T01:13:44;18.50;99.90
2487;DHT22;1254;49.144;8.212;2022-07-06T01:16:10;18.50;99.90
2487;DHT22;1254;49.144;8.212;2022-07-06T01:18:37;18.50;99.90
2487;DHT22;1254;49.144;8.212;2022-07-06T01:21:06;18.40;99.90
2487;DHT22;1254;49.144;8.212;2022-07-06T01:23:39;18.40;99.90
2487;DHT22;1254;49.144;8.212;2022-07-06T01:26:05;18.30;99.90
2487;DHT22;1254;49.144;8.212;2022-07-06T01:28:32;18.30;99.90
2487;DHT22;1254;49.144;8.212;2022-07-06T01:30:58;18.30;99.90
2487;DHT22;1254;49.144;8.212;2022-07-06T01:33:25;18.30;99.90
2487;DHT22;1254;49.144;8.212;2022-07-06T01:35:51;18.30;99.90
2487;DHT22;1254;49.144;8.212;2022-07-06T01:38:18;18.30;99.90
2487;DHT22;1254;49.144;8.212;2022-07-06T01:40:44;18.30;99.90
2487;DHT22;1254;49.144;8.212;2022-07-06T01:43:10;18.20;99.90
2487;DHT22;1254;49.144;8.212;2022-07-06T01:45:37;18.20;99.90
2487;DHT22;1254;49.144;8.212;2022-07-06T01:48:07;18.00;99.90
2487;DHT22;1254;49.144;8.212;2022-07-06T01:50:33;18.00;99.90
2487;DHT22;1254;49.144;8.212;2022-07-06T01:53:00;18.00;99.90
2487;DHT22;1254;49.144;8.212;2022-07-06T01:55:26;18.00;99.90
2487;DHT22;1254;49.144;8.212;2022-07-06T01:57:52;17.90;99.90
2487;DHT22;1254;49.144;8.212;2022-07-06T02:00:19;17.90;99.90
2487;DHT22;1254;49.144;8.212;2022-07-06T02:02:45;17.90;99.90
2487;DHT22;1254;49.144;8.212;2022-07-06T02:05:12;17.80;99.90
2487;DHT22;1254;49.144;8.212;2022-07-06T02:07:38;17.80;99.90
2487;DHT22;1254;49.144;8.212;2022-07-06T02:10:04;17.80;99.90
2487;DHT22;1254;49.144;8.212;2022-07-06T02:12:31;17.80;99.90
2487;DHT22;1254;49.144;8.212;2022-07-06T02:14:57;17.80;99.90
2487;DHT22;1254;49.144;8.212;2022-07-06T02:17:23;17.70;99.90
2487;DHT22;1254;49.144;8.212;2022-07-06T02:19:50;17.70;99.90
2487;DHT22;1254;49.144;8.212;2022-07-06T02:22:16;17.70;99.90
2487;DHT22;1254;49.144;8.212;2022-07-06T02:24:42;17.70;99.90
2487;DHT22;1254;49.144;8.212;2022-07-06T02:27:08;17.60;99.90
2487;DHT22;1254;49.144;8.212;2022-07-06T02:29:35;17.60;99.90
2487;DHT22;1254;49.144;8.212;2022-07-06T02:32:01;17.60;99.90
2487;DHT22;1254;49.144;8.212;2022-07-06T02:34:27;17.50;99.90
2487;DHT22;1254;49.144;8.212;2022-07-06T02:36:53;17.50;99.90
2487;DHT22;1254;49.144;8.212;2022-07-06T02:39:20;17.40;99.90
2487;DHT22;1254;49.144;8.212;2022-07-06T02:41:46;17.40;99.90
2487;DHT22;1254;49.144;8.212;2022-07-06T02:44:12;17.40;99.90
2487;DHT22;1254;49.144;8.212;2022-07-06T02:46:39;17.40;99.90
2487;DHT22;1254;49.144;8.212;2022-07-06T02:49:05;17.40;99.90
2487;DHT22;1254;49.144;8.212;2022-07-06T02:51:31;17.30;99.90
2487;DHT22;1254;49.144;8.212;2022-07-06T02:53:58;17.20;99.90
2487;DHT22;1254;49.144;8.212;2022-07-06T02:56:24;16.90;99.90
2487;DHT22;1254;49.144;8.212;2022-07-06T02:58:50;16.80;99.90
2487;DHT22;1254;49.144;8.212;2022-07-06T03:01:17;16.60;99.90
2487;DHT22;1254;49.144;8.212;2022-07-06T03:03:43;16.60;99.90
2487;DHT22;1254;49.144;8.212;2022-07-06T03:06:10;16.50;99.90
2487;DHT22;1254;49.144;8.212;2022-07-06T03:08:37;16.50;99.90
2487;DHT22;1254;49.144;8.212;2022-07-06T03:11:03;16.40;99.90
2487;DHT22;1254;49.144;8.212;2022-07-06T03:13:29;16.30;99.90
2487;DHT22;1254;49.144;8.212;2022-07-06T03:15:56;16.30;99.90
2487;DHT22;1254;49.144;8.212;2022-07-06T03:18:23;16.10;99.90
2487;DHT22;1254;49.144;8.212;2022-07-06T03:20:49;15.90;99.90
2487;DHT22;1254;49.144;8.212;2022-07-06T03:23:16;15.70;99.90
2487;DHT22;1254;49.144;8.212;2022-07-06T03:25:42;15.80;99.90
2487;DHT22;1254;49.144;8.212;2022-07-06T03:28:09;15.80;99.90
2487;DHT22;1254;49.144;8.212;2022-07-06T03:30:35;15.80;99.90
2487;DHT22;1254;49.144;8.212;2022-07-06T03:33:02;15.90;99.90
2487;DHT22;1254;49.144;8.212;2022-07-06T03:35:28;16.10;99.90
2487;DHT22;1254;49.144;8.212;2022-07-06T03:37:55;16.30;99.90
2487;DHT22;1254;49.144;8.212;2022-07-06T03:40:21;16.30;99.90
2487;DHT22;1254;49.144;8.212;2022-07-06T03:42:48;16.30;99.90
2487;DHT22;1254;49.144;8.212;2022-07-06T03:45:14;16.40;99.90
2487;DHT22;1254;49.144;8.212;2022-07-06T03:47:41;16.40;99.90
2487;DHT22;1254;49.144;8.212;2022-07-06T03:50:08;16.50;99.90
2487;DHT22;1254;49.144;8.212;2022-07-06T03:52:35;16.50;99.90
2487;DHT22;1254;49.144;8.212;2022-07-06T03:55:10;16.50;99.90
2487;DHT22;1254;49.144;8.212;2022-07-06T03:57:38;16.50;99.90
2487;DHT22;1254;49.144;8.212;2022-07-06T04:00:06;16.30;99.90
2487;DHT22;1254;49.144;8.212;2022-07-06T04:02:33;16.30;99.90
2487;DHT22;1254;49.144;8.212;2022-07-06T04:04:59;16.20;99.90
2487;DHT22;1254;49.144;8.212;2022-07-06T04:07:26;16.00;99.90
2487;DHT22;1254;49.144;8.212;2022-07-06T04:09:53;15.90;99.90
2487;DHT22;1254;49.144;8.212;2022-07-06T04:12:19;15.60;99.90
2487;DHT22;1254;49.144;8.212;2022-07-06T04:14:46;15.50;99.90
2487;DHT22;1254;49.144;8.212;2022-07-06T04:17:12;15.50;99.90
2487;DHT22;1254;49.144;8.212;2022-07-06T04:19:57;15.70;99.90
2487;DHT22;1254;49.144;8.212;2022-07-06T04:22:24;15.90;99.90
2487;DHT22;1254;49.144;8.212;2022-07-06T04:24:50;15.90;99.90
2487;DHT22;1254;49.144;8.212;2022-07-06T04:27:17;16.00;99.90
2487;DHT22;1254;49.144;8.212;2022-07-06T04:29:43;16.00;99.90
2487;DHT22;1254;49.144;8.212;2022-07-06T04:32:10;15.90;99.90
2487;DHT22;1254;49.144;8.212;2022-07-06T04:34:36;15.80;99.90
2487;DHT22;1254;49.144;8.212;2022-07-06T04:37:03;15.80;99.90
2487;DHT22;1254;49.144;8.212;2022-07-06T04:39:29;15.90;99.90
2487;DHT22;1254;49.144;8.212;2022-07-06T04:41:58;15.80;99.90
2487;DHT22;1254;49.144;8.212;2022-07-06T04:44:24;15.90;99.90
2487;DHT22;1254;49.144;8.212;2022-07-06T04:46:50;16.00;99.90
2487;DHT22;1254;49.144;8.212;2022-07-06T04:49:17;16.10;99.90
2487;DHT22;1254;49.144;8.212;2022-07-06T04:51:43;16.20;99.90
2487;DHT22;1254;49.144;8.212;2022-07-06T04:54:10;16.30;99.90
2487;DHT22;1254;49.144;8.212;2022-07-06T04:56:36;16.50;99.90
2487;DHT22;1254;49.144;8.212;2022-07-06T04:59:03;16.70;99.90
2487;DHT22;1254;49.144;8.212;2022-07-06T05:01:29;16.90;99.90
2487;DHT22;1254;49.144;8.212;2022-07-06T05:03:56;17.00;99.90
2487;DHT22;1254;49.144;8.212;2022-07-06T05:06:22;17.30;99.90
2487;DHT22;1254;49.144;8.212;2022-07-06T05:08:49;17.50;99.90
2487;DHT22;1254;49.144;8.212;2022-07-06T05:11:15;17.70;99.90
2487;DHT22;1254;49.144;8.212;2022-07-06T05:13:42;17.70;99.90
2487;DHT22;1254;49.144;8.212;2022-07-06T05:16:09;17.90;99.90
2487;DHT22;1254;49.144;8.212;2022-07-06T05:18:35;17.90;99.90
2487;DHT22;1254;49.144;8.212;2022-07-06T05:21:02;18.10;99.90
2487;DHT22;1254;49.144;8.212;2022-07-06T05:23:28;18.00;99.90
2487;DHT22;1254;49.144;8.212;2022-07-06T05:25:55;18.00;99.90
2487;DHT22;1254;49.144;8.212;2022-07-06T05:28:21;17.90;99.90
2487;DHT22;1254;49.144;8.212;2022-07-06T05:30:48;17.90;99.90
2487;DHT22;1254;49.144;8.212;2022-07-06T05:33:15;18.00;99.90
2487;DHT22;1254;49.144;8.212;2022-07-06T05:35:41;18.00;99.90
2487;DHT22;1254;49.144;8.212;2022-07-06T05:38:08;17.90;99.90
2487;DHT22;1254;49.144;8.212;2022-07-06T05:40:34;18.10;99.90
2487;DHT22;1254;49.144;8.212;2022-07-06T05:43:01;18.10;99.90
2487;DHT22;1254;49.144;8.212;2022-07-06T05:45:27;18.30;99.90
2487;DHT22;1254;49.144;8.212;2022-07-06T05:47:53;18.40;99.90
2487;DHT22;1254;49.144;8.212;2022-07-06T05:50:39;18.50;99.90
2487;DHT22;1254;49.144;8.212;2022-07-06T05:53:06;18.50;99.90
2487;DHT22;1254;49.144;8.212;2022-07-06T05:55:33;18.60;99.90
2487;DHT22;1254;49.144;8.212;2022-07-06T05:57:59;18.60;99.90
2487;DHT22;1254;49.144;8.212;2022-07-06T06:00:27;18.70;99.90
2487;DHT22;1254;49.144;8.212;2022-07-06T06:02:54;18.80;99.90
2487;DHT22;1254;49.144;8.212;2022-07-06T06:05:21;18.60;99.90
2487;DHT22;1254;49.144;8.212;2022-07-06T06:07:48;18.60;99.90
2487;DHT22;1254;49.144;8.212;2022-07-06T06:10:18;18.60;99.90
2487;DHT22;1254;49.144;8.212;2022-07-06T06:12:45;18.70;99.90
2487;DHT22;1254;49.144;8.212;2022-07-06T06:15:12;18.70;99.90
2487;DHT22;1254;49.144;8.212;2022-07-06T06:17:39;18.90;99.90
2487;DHT22;1254;49.144;8.212;2022-07-06T06:20:09;18.80;99.90
2487;DHT22;1254;49.144;8.212;2022-07-06T06:22:49;18.80;99.90
2487;DHT22;1254;49.144;8.212;2022-07-06T06:25:18;19.00;99.90
2487;DHT22;1254;49.144;8.212;2022-07-06T06:27:45;18.90;99.90
2487;DHT22;1254;49.144;8.212;2022-07-06T06:30:12;18.80;99.90
2487;DHT22;1254;49.144;8.212;2022-07-06T06:32:39;18.80;99.90
2487;DHT22;1254;49.144;8.212;2022-07-06T06:35:06;18.70;99.90
2487;DHT22;1254;49.144;8.212;2022-07-06T06:37:33;18.70;99.90
2487;DHT22;1254;49.144;8.212;2022-07-06T06:40:01;19.00;99.90
2487;DHT22;1254;49.144;8.212;2022-07-06T06:42:27;19.10;99.90
2487;DHT22;1254;49.144;8.212;2022-07-06T06:44:54;19.10;99.90
2487;DHT22;1254;49.144;8.212;2022-07-06T06:47:20;19.40;99.90
2487;DHT22;1254;49.144;8.212;2022-07-06T06:49:47;19.30;99.90
2487;DHT22;1254;49.144;8.212;2022-07-06T06:52:14;19.30;99.90
2487;DHT22;1254;49.144;8.212;2022-07-06T06:54:40;19.40;99.90
2487;DHT22;1254;49.144;8.212;2022-07-06T06:57:07;19.60;99.90
2487;DHT22;1254;49.144;8.212;2022-07-06T06:59:33;19.70;99.90
2487;DHT22;1254;49.144;8.212;2022-07-06T07:02:00;19.60;99.90
2487;DHT22;1254;49.144;8.212;2022-07-06T07:04:28;19.40;99.90
2487;DHT22;1254;49.144;8.212;2022-07-06T07:06:55;19.40;99.90
2487;DHT22;1254;49.144;8.212;2022-07-06T07:09:22;19.50;99.90
2487;DHT22;1254;49.144;8.212;2022-07-06T07:11:48;19.60;99.90
2487;DHT22;1254;49.144;8.212;2022-07-06T07:14:15;19.70;99.90
2487;DHT22;1254;49.144;8.212;2022-07-06T07:16:41;19.90;99.90
2487;DHT22;1254;49.144;8.212;2022-07-06T07:19:08;20.00;99.90
2487;DHT22;1254;49.144;8.212;2022-07-06T07:21:34;20.00;99.90
2487;DHT22;1254;49.144;8.212;2022-07-06T07:24:01;19.90;99.90
2487;DHT22;1254;49.144;8.212;2022-07-06T07:26:27;19.80;99.90
2487;DHT22;1254;49.144;8.212;2022-07-06T07:28:54;19.70;99.90
2487;DHT22;1254;49.144;8.212;2022-07-06T07:31:20;19.80;99.90
2487;DHT22;1254;49.144;8.212;2022-07-06T07:33:47;20.10;99.90
2487;DHT22;1254;49.144;8.212;2022-07-06T07:36:14;20.30;99.90
2487;DHT22;1254;49.144;8.212;2022-07-06T07:38:41;20.20;99.90
2487;DHT22;1254;49.144;8.212;2022-07-06T07:41:07;19.80;99.90
2487;DHT22;1254;49.144;8.212;2022-07-06T07:43:34;20.00;99.90
2487;DHT22;1254;49.144;8.212;2022-07-06T07:46:00;20.10;99.90
2487;DHT22;1254;49.144;8.212;2022-07-06T07:48:27;20.10;99.90
2487;DHT22;1254;49.144;8.212;2022-07-06T07:50:53;20.40;99.90
2487;DHT22;1254;49.144;8.212;2022-07-06T07:53:20;20.40;99.90
2487;DHT22;1254;49.144;8.212;2022-07-06T07:55:46;20.60;99.90
2487;DHT22;1254;49.144;8.212;2022-07-06T07:58:13;20.60;99.90
2487;DHT22;1254;49.144;8.212;2022-07-06T08:00:39;20.50;99.90
2487;DHT22;1254;49.144;8.212;2022-07-06T08:03:06;20.50;99.90
2487;DHT22;1254;49.144;8.212;2022-07-06T08:05:32;20.60;99.90
2487;DHT22;1254;49.144;8.212;2022-07-06T08:07:59;20.70;99.90
2487;DHT22;1254;49.144;8.212;2022-07-06T08:10:25;20.80;99.90
2487;DHT22;1254;49.144;8.212;2022-07-06T08:12:52;20.80;99.90
2487;DHT22;1254;49.144;8.212;2022-07-06T08:15:19;21.00;99.90
2487;DHT22;1254;49.144;8.212;2022-07-06T08:17:45;21.30;99.90
2487;DHT22;1254;49.144;8.212;2022-07-06T08:20:12;21.30;99.90
2487;DHT22;1254;49.144;8.212;2022-07-06T08:22:39;21.30;99.90
2487;DHT22;1254;49.144;8.212;2022-07-06T08:25:06;21.30;99.90
2487;DHT22;1254;49.144;8.212;2022-07-06T08:27:33;21.30;99.90
2487;DHT22;1254;49.144;8.212;2022-07-06T08:30:00;21.50;99.90
2487;DHT22;1254;49.144;8.212;2022-07-06T08:32:26;21.20;99.90
2487;DHT22;1254;49.144;8.212;2022-07-06T08:34:53;21.50;99.90
2487;DHT22;1254;49.144;8.212;2022-07-06T08:37:19;21.60;99.90
2487;DHT22;1254;49.144;8.212;2022-07-06T08:39:46;21.20;99.90
2487;DHT22;1254;49.144;8.212;2022-07-06T08:42:15;21.10;99.90
2487;DHT22;1254;49.144;8.212;2022-07-06T08:44:43;21.50;99.90
2487;DHT22;1254;49.144;8.212;2022-07-06T08:47:10;21.60;99.90
2487;DHT22;1254;49.144;8.212;2022-07-06T08:49:36;21.40;99.90
2487;DHT22;1254;49.144;8.212;2022-07-06T08:52:04;21.50;99.90
2487;DHT22;1254;49.144;8.212;2022-07-06T08:54:31;21.80;99.90
2487;DHT22;1254;49.144;8.212;2022-07-06T08:56:58;22.10;99.90
2487;DHT22;1254;49.144;8.212;2022-07-06T08:59:25;22.20;99.90
2487;DHT22;1254;49.144;8.212;2022-07-06T09:01:52;22.20;99.90
2487;DHT22;1254;49.144;8.212;2022-07-06T09:04:22;22.10;99.90
2487;DHT22;1254;49.144;8.212;2022-07-06T09:06:49;22.10;99.90
2487;DHT22;1254;49.144;8.212;2022-07-06T09:09:20;22.40;99.90
2487;DHT22;1254;49.144;8.212;2022-07-06T09:11:47;22.70;99.90
2487;DHT22;1254;49.144;8.212;2022-07-06T09:14:14;22.30;99.90
2487;DHT22;1254;49.144;8.212;2022-07-06T09:16:40;22.80;99.90
2487;DHT22;1254;49.144;8.212;2022-07-06T09:19:07;22.80;99.90
2487;DHT22;1254;49.144;8.212;2022-07-06T09:21:34;23.10;99.90
2487;DHT22;1254;49.144;8.212;2022-07-06T09:24:09;23.90;99.90
2487;DHT22;1254;49.144;8.212;2022-07-06T09:26:36;24.00;99.90
2487;DHT22;1254;49.144;8.212;2022-07-06T09:29:03;24.10;99.90
2487;DHT22;1254;49.144;8.212;2022-07-06T09:31:30;24.10;99.90
2487;DHT22;1254;49.144;8.212;2022-07-06T09:34:08;23.50;99.90
2487;DHT22;1254;49.144;8.212;2022-07-06T09:41:49;23.80;99.90
2487;DHT22;1254;49.144;8.212;2022-07-06T09:46:53;23.50;99.90
2487;DHT22;1254;49.144;8.212;2022-07-06T09:49:21;23.20;99.90
2487;DHT22;1254;49.144;8.212;2022-07-06T09:51:50;23.40;99.90
2487;DHT22;1254;49.144;8.212;2022-07-06T09:54:17;23.50;99.90
2487;DHT22;1254;49.144;8.212;2022-07-06T09:56:45;23.60;99.90
2487;DHT22;1254;49.144;8.212;2022-07-06T09:59:21;23.10;99.90
2487;DHT22;1254;49.144;8.212;2022-07-06T10:01:52;23.20;99.90
2487;DHT22;1254;49.144;8.212;2022-07-06T10:04:18;23.20;99.90
2487;DHT22;1254;49.144;8.212;2022-07-06T10:06:47;23.80;99.90
2487;DHT22;1254;49.144;8.212;2022-07-06T10:09:14;22.90;99.90
2487;DHT22;1254;49.144;8.212;2022-07-06T10:11:51;23.00;99.90
2487;DHT22;1254;49.144;8.212;2022-07-06T10:14:24;23.50;99.90
2487;DHT22;1254;49.144;8.212;2022-07-06T10:16:51;23.70;99.90
2487;DHT22;1254;49.144;8.212;2022-07-06T10:19:19;23.10;99.90
2487;DHT22;1254;49.144;8.212;2022-07-06T10:21:47;23.30;99.90
2487;DHT22;1254;49.144;8.212;2022-07-06T10:24:14;23.10;99.90
2487;DHT22;1254;49.144;8.212;2022-07-06T10:26:42;23.30;99.90
2487;DHT22;1254;49.144;8.212;2022-07-06T10:29:09;23.20;99.90
2487;DHT22;1254;49.144;8.212;2022-07-06T10:31:39;23.00;99.90
2487;DHT22;1254;49.144;8.212;2022-07-06T10:34:08;23.50;99.90
2487;DHT22;1254;49.144;8.212;2022-07-06T10:36:39;23.50;99.90
2487;DHT22;1254;49.144;8.212;2022-07-06T10:39:07;23.70;99.90
2487;DHT22;1254;49.144;8.212;2022-07-06T10:41:52;23.80;99.90
2487;DHT22;1254;49.144;8.212;2022-07-06T10:44:24;23.50;99.90
2487;DHT22;1254;49.144;8.212;2022-07-06T10:46:55;23.40;99.90
2487;DHT22;1254;49.144;8.212;2022-07-06T10:49:23;24.10;99.90
2487;DHT22;1254;49.144;8.212;2022-07-06T10:51:50;24.10;99.90
2487;DHT22;1254;49.144;8.212;2022-07-06T10:54:20;24.20;99.90
2487;DHT22;1254;49.144;8.212;2022-07-06T10:56:49;23.80;99.90
2487;DHT22;1254;49.144;8.212;2022-07-06T10:59:21;23.20;99.90
2487;DHT22;1254;49.144;8.212;2022-07-06T11:02:16;23.20;99.90
2487;DHT22;1254;49.144;8.212;2022-07-06T11:04:46;23.00;99.90
2487;DHT22;1254;49.144;8.212;2022-07-06T11:07:18;23.30;99.90
2487;DHT22;1254;49.144;8.212;2022-07-06T11:09:55;23.10;99.90
2487;DHT22;1254;49.144;8.212;2022-07-06T11:12:22;22.70;99.90
2487;DHT22;1254;49.144;8.212;2022-07-06T11:14:50;23.10;99.90
2487;DHT22;1254;49.144;8.212;2022-07-06T11:17:17;24.00;99.90
2487;DHT22;1254;49.144;8.212;2022-07-06T11:19:58;23.50;99.90
2487;DHT22;1254;49.144;8.212;2022-07-06T11:22:36;24.10;99.90
2487;DHT22;1254;49.144;8.212;2022-07-06T11:25:04;24.40;99.90
2487;DHT22;1254;49.144;8.212;2022-07-06T11:27:30;23.80;99.90
2487;DHT22;1254;49.144;8.212;2022-07-06T11:29:57;24.00;99.90
2487;DHT22;1254;49.144;8.212;2022-07-06T11:32:25;23.80;99.90
2487;DHT22;1254;49.144;8.212;2022-07-06T11:34:52;23.20;99.90
2487;DHT22;1254;49.144;8.212;2022-07-06T11:37:20;23.90;99.90
2487;DHT22;1254;49.144;8.212;2022-07-06T11:39:47;25.00;99.90
2487;DHT22;1254;49.144;8.212;2022-07-06T11:42:16;26.30;99.90
2487;DHT22;1254;49.144;8.212;2022-07-06T11:44:46;26.10;99.90
2487;DHT22;1254;49.144;8.212;2022-07-06T11:47:13;24.70;99.90
2487;DHT22;1254;49.144;8.212;2022-07-06T11:49:41;24.40;99.90
2487;DHT22;1254;49.144;8.212;2022-07-06T11:52:08;24.10;99.90
2487;DHT22;1254;49.144;8.212;2022-07-06T11:54:35;24.60;99.90
2487;DHT22;1254;49.144;8.212;2022-07-06T11:57:02;25.90;99.90
2487;DHT22;1254;49.144;8.212;2022-07-06T11:59:33;27.20;99.90
2487;DHT22;1254;49.144;8.212;2022-07-06T12:02:10;28.20;99.90
2487;DHT22;1254;49.144;8.212;2022-07-06T12:04:38;26.40;99.90
2487;DHT22;1254;49.144;8.212;2022-07-06T12:07:08;27.50;99.90
2487;DHT22;1254;49.144;8.212;2022-07-06T12:09:37;27.60;99.90
2487;DHT22;1254;49.144;8.212;2022-07-06T12:12:05;27.90;99.90
2487;DHT22;1254;49.144;8.212;2022-07-06T12:14:33;28.10;99.90
2487;DHT22;1254;49.144;8.212;2022-07-06T12:17:11;28.60;99.90
2487;DHT22;1254;49.144;8.212;2022-07-06T12:19:39;28.10;99.90
2487;DHT22;1254;49.144;8.212;2022-07-06T12:22:07;26.90;99.90
2487;DHT22;1254;49.144;8.212;2022-07-06T12:24:34;26.00;99.90
2487;DHT22;1254;49.144;8.212;2022-07-06T12:27:18;27.10;99.90
2487;DHT22;1254;49.144;8.212;2022-07-06T12:29:46;28.60;99.90
2487;DHT22;1254;49.144;8.212;2022-07-06T12:32:20;29.80;99.90
2487;DHT22;1254;49.144;8.212;2022-07-06T12:35:11;28.50;26.60
2487;DHT22;1254;49.144;8.212;2022-07-06T12:37:37;28.90;24.40
2487;DHT22;1254;49.144;8.212;2022-07-06T12:40:14;28.70;19.20
2487;DHT22;1254;49.144;8.212;2022-07-06T12:42:47;28.30;11.30
2487;DHT22;1254;49.144;8.212;2022-07-06T12:45:14;28.70;15.70
2487;DHT22;1254;49.144;8.212;2022-07-06T12:47:41;28.20;14.70
2487;DHT22;1254;49.144;8.212;2022-07-06T12:50:10;28.60;15.00
2487;DHT22;1254;49.144;8.212;2022-07-06T12:52:37;29.80;7.60
2487;DHT22;1254;49.144;8.212;2022-07-06T12:55:05;28.60;1.00
2487;DHT22;1254;49.144;8.212;2022-07-06T12:57:46;29.10;2.60
2487;DHT22;1254;49.144;8.212;2022-07-06T13:00:13;29.30;1.00
2487;DHT22;1254;49.144;8.212;2022-07-06T13:02:44;28.20;1.00
2487;DHT22;1254;49.144;8.212;2022-07-06T13:05:13;28.30;3.20
2487;DHT22;1254;49.144;8.212;2022-07-06T13:07:47;26.70;5.80
2487;DHT22;1254;49.144;8.212;2022-07-06T13:10:15;28.10;7.00
2487;DHT22;1254;49.144;8.212;2022-07-06T13:12:43;29.60;1.00
2487;DHT22;1254;49.144;8.212;2022-07-06T13:15:10;30.70;1.00
2487;DHT22;1254;49.144;8.212;2022-07-06T13:17:37;31.20;1.00
2487;DHT22;1254;49.144;8.212;2022-07-06T13:20:07;30.30;1.00
2487;DHT22;1254;49.144;8.212;2022-07-06T13:22:35;30.60;1.00
2487;DHT22;1254;49.144;8.212;2022-07-06T13:25:01;31.10;1.00
2487;DHT22;1254;49.144;8.212;2022-07-06T13:27:28;31.30;1.00
2487;DHT22;1254;49.144;8.212;2022-07-06T13:29:55;30.40;1.00
2487;DHT22;1254;49.144;8.212;2022-07-06T13:32:21;29.60;1.00
2487;DHT22;1254;49.144;8.212;2022-07-06T13:34:48;29.30;1.00
2487;DHT22;1254;49.144;8.212;2022-07-06T13:37:15;29.50;1.00
2487;DHT22;1254;49.144;8.212;2022-07-06T13:39:41;29.40;1.00
2487;DHT22;1254;49.144;8.212;2022-07-06T13:42:08;29.40;1.00
2487;DHT22;1254;49.144;8.212;2022-07-06T13:44:35;30.00;1.00
2487;DHT22;1254;49.144;8.212;2022-07-06T13:47:02;31.30;1.00
2487;DHT22;1254;49.144;8.212;2022-07-06T13:49:28;31.30;1.00
2487;DHT22;1254;49.144;8.212;2022-07-06T13:51:55;31.10;1.00
2487;DHT22;1254;49.144;8.212;2022-07-06T13:54:29;31.60;1.00
2487;DHT22;1254;49.144;8.212;2022-07-06T13:56:55;29.40;1.00
2487;DHT22;1254;49.144;8.212;2022-07-06T13:59:22;29.30;1.00
2487;DHT22;1254;49.144;8.212;2022-07-06T14:01:48;29.90;1.00
2487;DHT22;1254;49.144;8.212;2022-07-06T14:04:15;30.50;1.00
2487;DHT22;1254;49.144;8.212;2022-07-06T14:06:42;31.60;1.00
2487;DHT22;1254;49.144;8.212;2022-07-06T14:09:09;31.80;1.00
2487;DHT22;1254;49.144;8.212;2022-07-06T14:11:36;31.10;1.00
2487;DHT22;1254;49.144;8.212;2022-07-06T14:14:02;29.70;1.00
2487;DHT22;1254;49.144;8.212;2022-07-06T14:16:29;31.30;1.00
2487;DHT22;1254;49.144;8.212;2022-07-06T14:18:55;31.40;1.00
2487;DHT22;1254;49.144;8.212;2022-07-06T14:21:22;32.40;1.00
2487;DHT22;1254;49.144;8.212;2022-07-06T14:23:49;30.80;1.00
2487;DHT22;1254;49.144;8.212;2022-07-06T14:26:15;29.30;1.00
2487;DHT22;1254;49.144;8.212;2022-07-06T14:28:42;29.10;1.00
2487;DHT22;1254;49.144;8.212;2022-07-06T14:31:08;27.40;1.00
2487;DHT22;1254;49.144;8.212;2022-07-06T14:33:35;28.80;1.00
2487;DHT22;1254;49.144;8.212;2022-07-06T14:36:01;29.80;1.00
2487;DHT22;1254;49.144;8.212;2022-07-06T14:38:28;27.90;1.00
2487;DHT22;1254;49.144;8.212;2022-07-06T14:40:54;28.90;1.00
2487;DHT22;1254;49.144;8.212;2022-07-06T14:43:21;28.50;1.00
2487;DHT22;1254;49.144;8.212;2022-07-06T14:45:48;29.90;1.00
2487;DHT22;1254;49.144;8.212;2022-07-06T14:48:14;31.10;1.00
2487;DHT22;1254;49.144;8.212;2022-07-06T14:50:41;30.50;1.00
2487;DHT22;1254;49.144;8.212;2022-07-06T14:53:07;29.40;1.00
2487;DHT22;1254;49.144;8.212;2022-07-06T14:55:34;28.80;1.00
2487;DHT22;1254;49.144;8.212;2022-07-06T14:58:01;28.20;1.00
2487;DHT22;1254;49.144;8.212;2022-07-06T15:00:27;28.00;1.00
2487;DHT22;1254;49.144;8.212;2022-07-06T15:02:54;27.80;1.00
2487;DHT22;1254;49.144;8.212;2022-07-06T15:05:20;27.40;1.00
2487;DHT22;1254;49.144;8.212;2022-07-06T15:07:47;27.20;1.00
2487;DHT22;1254;49.144;8.212;2022-07-06T15:10:13;27.00;1.00
2487;DHT22;1254;49.144;8.212;2022-07-06T15:12:40;27.00;1.00
2487;DHT22;1254;49.144;8.212;2022-07-06T15:15:07;26.90;1.00
2487;DHT22;1254;49.144;8.212;2022-07-06T15:17:33;26.80;1.00
2487;DHT22;1254;49.144;8.212;2022-07-06T15:20:00;26.60;1.00
2487;DHT22;1254;49.144;8.212;2022-07-06T15:22:27;26.70;1.00
2487;DHT22;1254;49.144;8.212;2022-07-06T15:24:53;26.70;1.00
2487;DHT22;1254;49.144;8.212;2022-07-06T15:27:20;26.30;1.00
2487;DHT22;1254;49.144;8.212;2022-07-06T15:29:46;26.30;1.00
2487;DHT22;1254;49.144;8.212;2022-07-06T15:32:13;26.20;1.00
2487;DHT22;1254;49.144;8.212;2022-07-06T15:34:39;26.30;1.00
2487;DHT22;1254;49.144;8.212;2022-07-06T15:37:06;26.40;1.00
2487;DHT22;1254;49.144;8.212;2022-07-06T15:39:32;26.70;1.00
2487;DHT22;1254;49.144;8.212;2022-07-06T15:41:59;26.80;1.00
2487;DHT22;1254;49.144;8.212;2022-07-06T15:44:25;27.20;1.00
2487;DHT22;1254;49.144;8.212;2022-07-06T15:46:52;27.10;1.00
2487;DHT22;1254;49.144;8.212;2022-07-06T15:49:18;27.50;1.00
2487;DHT22;1254;49.144;8.212;2022-07-06T15:51:45;27.70;1.00
2487;DHT22;1254;49.144;8.212;2022-07-06T15:54:11;27.60;1.00
2487;DHT22;1254;49.144;8.212;2022-07-06T15:56:39;27.00;1.00
2487;DHT22;1254;49.144;8.212;2022-07-06T15:59:05;26.30;1.00
2487;DHT22;1254;49.144;8.212;2022-07-06T16:01:32;26.10;1.00
2487;DHT22;1254;49.144;8.212;2022-07-06T16:03:59;26.30;1.00
2487;DHT22;1254;49.144;8.212;2022-07-06T16:06:26;26.20;1.00
2487;DHT22;1254;49.144;8.212;2022-07-06T16:08:53;26.10;1.00
2487;DHT22;1254;49.144;8.212;2022-07-06T16:11:19;25.90;1.00
2487;DHT22;1254;49.144;8.212;2022-07-06T16:13:46;25.50;1.00
2487;DHT22;1254;49.144;8.212;2022-07-06T16:16:13;25.40;1.00